Uyuni, Bolivia
Current Conditions -  °F | °C
As of 11:00 PM on Wednesday 22 Oct 2014 (Local Time) from SCCF Reporting Station
Clear Clear  
Wind Chill: 43°   Ceiling: Unl
Heat Index: 48°   Visibility: 6mi
Dew Point: -2°   Wind: 12mph
Humidity: 12%   Direction: 80°E
Pressure: 30.39"   Gusts: NA
Location:  20.46°S, 66.83°W
Report Text: SCCF 230300Z 08010KT CAVOK 09/M19 Q1029
Loading
Personal Weather Stations






























Interactive Weather Map
Tropical Storm Tracking
New forecast layout! Learn more

10-Day Weather Forecast

Advertisements
Track Severe Weather on mobile